sensor_id;sensor_type;location;lat;lon;timestamp;P1;durP1;ratioP1;P2;durP2;ratioP2
80868;SDS011;70295;40.182;44.498;2023-06-14T00:01:19;14.1;;;6.1;;
80868;SDS011;70295;40.182;44.498;2023-06-14T00:03:19;16.3;;;6.1;;
80868;SDS011;70295;40.182;44.498;2023-06-14T00:05:18;13;;;5.5;;
80868;SDS011;70295;40.182;44.498;2023-06-14T00:07:20;14.3;;;6.2;;
80868;SDS011;70295;40.182;44.498;2023-06-14T00:09:19;14.8;;;6;;
80868;SDS011;70295;40.182;44.498;2023-06-14T00:11:19;14.8;;;6.6;;
80868;SDS011;70295;40.182;44.498;2023-06-14T00:13:19;13.5;;;6.2;;
80868;SDS011;70295;40.182;44.498;2023-06-14T00:15:19;15.8;;;6;;
80868;SDS011;70295;40.182;44.498;2023-06-14T00:17:19;14;;;6.4;;
80868;SDS011;70295;40.182;44.498;2023-06-14T00:19:19;16.4;;;6.2;;
80868;SDS011;70295;40.182;44.498;2023-06-14T00:21:19;15.7;;;6.2;;
80868;SDS011;70295;40.182;44.498;2023-06-14T00:23:19;13.9;;;6;;
80868;SDS011;70295;40.182;44.498;2023-06-14T00:25:19;11.4;;;5.8;;
80868;SDS011;70295;40.182;44.498;2023-06-14T00:27:19;12;;;5.8;;
80868;SDS011;70295;40.182;44.498;2023-06-14T00:29:19;14.4;;;5.9;;
80868;SDS011;70295;40.182;44.498;2023-06-14T00:31:19;14.5;;;6.4;;
80868;SDS011;70295;40.182;44.498;2023-06-14T00:33:19;16;;;6.7;;
80868;SDS011;70295;40.182;44.498;2023-06-14T00:35:19;13.5;;;6.3;;
80868;SDS011;70295;40.182;44.498;2023-06-14T00:37:19;14.4;;;5.6;;
80868;SDS011;70295;40.182;44.498;2023-06-14T00:39:19;12.7;;;5.8;;
80868;SDS011;70295;40.182;44.498;2023-06-14T00:41:19;12.9;;;5.4;;
80868;SDS011;70295;40.182;44.498;2023-06-14T00:43:19;12.6;;;5.8;;
80868;SDS011;70295;40.182;44.498;2023-06-14T00:45:19;12.3;;;6.5;;
80868;SDS011;70295;40.182;44.498;2023-06-14T00:47:18;14;;;5.7;;
80868;SDS011;70295;40.182;44.498;2023-06-14T00:49:19;13.3;;;5.5;;
80868;SDS011;70295;40.182;44.498;2023-06-14T00:52:56;18.4;;;5.9;;
80868;SDS011;70295;40.182;44.498;2023-06-14T00:54:56;14.4;;;5.4;;
80868;SDS011;70295;40.182;44.498;2023-06-14T00:56:55;14.1;;;5.1;;
80868;SDS011;70295;40.182;44.498;2023-06-14T00:58:56;15.5;;;5;;
80868;SDS011;70295;40.182;44.498;2023-06-14T01:00:56;15.2;;;5.8;;
80868;SDS011;70295;40.182;44.498;2023-06-14T01:02:56;17.7;;;6.2;;
80868;SDS011;70295;40.182;44.498;2023-06-14T01:05:00;16.7;;;5.5;;
80868;SDS011;70295;40.182;44.498;2023-06-14T01:07:02;16.7;;;6;;
80868;SDS011;70295;40.182;44.498;2023-06-14T01:13:15;16.2;;;5.3;;
80868;SDS011;70295;40.182;44.498;2023-06-14T01:15:04;13.6;;;5;;
80868;SDS011;70295;40.182;44.498;2023-06-14T01:17:03;16.8;;;5.4;;
80868;SDS011;70295;40.182;44.498;2023-06-14T01:19:03;14.1;;;5;;
80868;SDS011;70295;40.182;44.498;2023-06-14T01:21:02;12.2;;;4.9;;
80868;SDS011;70295;40.182;44.498;2023-06-14T01:23:03;12.6;;;4.8;;
80868;SDS011;70295;40.182;44.498;2023-06-14T01:25:03;9.6;;;4.6;;
80868;SDS011;70295;40.182;44.498;2023-06-14T01:27:05;12.8;;;4.9;;
80868;SDS011;70295;40.182;44.498;2023-06-14T01:29:04;12.9;;;4.9;;
80868;SDS011;70295;40.182;44.498;2023-06-14T01:31:04;9.7;;;4.5;;
80868;SDS011;70295;40.182;44.498;2023-06-14T01:33:03;7.4;;;3.7;;
80868;SDS011;70295;40.182;44.498;2023-06-14T01:35:03;9.5;;;4.1;;
80868;SDS011;70295;40.182;44.498;2023-06-14T01:37:04;8.8;;;3.6;;
80868;SDS011;70295;40.182;44.498;2023-06-14T01:39:03;9.1;;;3.5;;
80868;SDS011;70295;40.182;44.498;2023-06-14T01:41:04;10.5;;;4.2;;
80868;SDS011;70295;40.182;44.498;2023-06-14T01:43:03;13.5;;;5;;
80868;SDS011;70295;40.182;44.498;2023-06-14T01:45:04;12.4;;;5.4;;
80868;SDS011;70295;40.182;44.498;2023-06-14T01:47:03;10.9;;;5.5;;
80868;SDS011;70295;40.182;44.498;2023-06-14T01:49:02;12.7;;;5.1;;
80868;SDS011;70295;40.182;44.498;2023-06-14T01:51:03;13.3;;;5.3;;
80868;SDS011;70295;40.182;44.498;2023-06-14T01:53:03;10.4;;;5;;
80868;SDS011;70295;40.182;44.498;2023-06-14T01:55:03;10.4;;;4.2;;
80868;SDS011;70295;40.182;44.498;2023-06-14T01:57:03;7.5;;;3.3;;
80868;SDS011;70295;40.182;44.498;2023-06-14T01:59:03;5.7;;;3;;
80868;SDS011;70295;40.182;44.498;2023-06-14T02:01:03;12.1;;;3.8;;
80868;SDS011;70295;40.182;44.498;2023-06-14T02:03:03;6.8;;;3.3;;
80868;SDS011;70295;40.182;44.498;2023-06-14T02:05:03;9;;;4.2;;
80868;SDS011;70295;40.182;44.498;2023-06-14T02:07:03;9.3;;;4;;
80868;SDS011;70295;40.182;44.498;2023-06-14T02:09:02;10.6;;;4.6;;
80868;SDS011;70295;40.182;44.498;2023-06-14T02:11:03;11.3;;;5.2;;
80868;SDS011;70295;40.182;44.498;2023-06-14T02:13:03;12.8;;;5.8;;
80868;SDS011;70295;40.182;44.498;2023-06-14T02:15:02;13;;;5.7;;
80868;SDS011;70295;40.182;44.498;2023-06-14T02:17:03;11.1;;;4.2;;
80868;SDS011;70295;40.182;44.498;2023-06-14T02:19:03;9.2;;;4;;
80868;SDS011;70295;40.182;44.498;2023-06-14T02:21:03;6.3;;;3.1;;
80868;SDS011;70295;40.182;44.498;2023-06-14T02:23:03;8.8;;;4.5;;
80868;SDS011;70295;40.182;44.498;2023-06-14T02:25:03;7;;;3.3;;
80868;SDS011;70295;40.182;44.498;2023-06-14T02:27:03;9.8;;;3.9;;
80868;SDS011;70295;40.182;44.498;2023-06-14T02:29:03;11.2;;;5.1;;
80868;SDS011;70295;40.182;44.498;2023-06-14T02:31:03;11;;;5.2;;
80868;SDS011;70295;40.182;44.498;2023-06-14T02:33:02;11.1;;;5.1;;
80868;SDS011;70295;40.182;44.498;2023-06-14T02:35:03;10.1;;;5.3;;
80868;SDS011;70295;40.182;44.498;2023-06-14T02:37:03;10.4;;;4.8;;
80868;SDS011;70295;40.182;44.498;2023-06-14T02:39:03;11.8;;;4.5;;
80868;SDS011;70295;40.182;44.498;2023-06-14T02:41:03;9;;;4.3;;
80868;SDS011;70295;40.182;44.498;2023-06-14T02:43:03;9;;;4.3;;
80868;SDS011;70295;40.182;44.498;2023-06-14T02:45:03;8;;;4.3;;
80868;SDS011;70295;40.182;44.498;2023-06-14T02:47:03;12.3;;;5.4;;
80868;SDS011;70295;40.182;44.498;2023-06-14T02:49:02;12.1;;;5.8;;
80868;SDS011;70295;40.182;44.498;2023-06-14T02:51:03;12.1;;;6;;
80868;SDS011;70295;40.182;44.498;2023-06-14T02:53:02;11.1;;;5.3;;
80868;SDS011;70295;40.182;44.498;2023-06-14T02:55:03;14.5;;;5.8;;
80868;SDS011;70295;40.182;44.498;2023-06-14T02:57:03;11.3;;;5.3;;
80868;SDS011;70295;40.182;44.498;2023-06-14T02:59:03;15.8;;;6.9;;
80868;SDS011;70295;40.182;44.498;2023-06-14T03:01:04;15;;;5.9;;
80868;SDS011;70295;40.182;44.498;2023-06-14T03:03:03;13.2;;;5.7;;
80868;SDS011;70295;40.182;44.498;2023-06-14T03:05:03;9.3;;;5.2;;
80868;SDS011;70295;40.182;44.498;2023-06-14T03:07:03;11.3;;;5.4;;
80868;SDS011;70295;40.182;44.498;2023-06-14T03:09:03;11.5;;;5;;
80868;SDS011;70295;40.182;44.498;2023-06-14T03:11:03;10.2;;;4.8;;
80868;SDS011;70295;40.182;44.498;2023-06-14T03:13:02;9.5;;;4.9;;
80868;SDS011;70295;40.182;44.498;2023-06-14T03:15:03;10.6;;;4.7;;
80868;SDS011;70295;40.182;44.498;2023-06-14T03:17:03;7.6;;;4.1;;
80868;SDS011;70295;40.182;44.498;2023-06-14T03:19:03;8.1;;;4.3;;
80868;SDS011;70295;40.182;44.498;2023-06-14T03:21:03;9.7;;;4.4;;
80868;SDS011;70295;40.182;44.498;2023-06-14T03:23:03;9.6;;;4.2;;
80868;SDS011;70295;40.182;44.498;2023-06-14T03:25:03;11;;;4.6;;
80868;SDS011;70295;40.182;44.498;2023-06-14T03:27:03;9.2;;;4;;
80868;SDS011;70295;40.182;44.498;2023-06-14T03:29:02;8.2;;;4.4;;
80868;SDS011;70295;40.182;44.498;2023-06-14T03:31:03;9.6;;;4;;
80868;SDS011;70295;40.182;44.498;2023-06-14T03:33:03;10.5;;;4.7;;
80868;SDS011;70295;40.182;44.498;2023-06-14T03:35:03;10.3;;;4.6;;
80868;SDS011;70295;40.182;44.498;2023-06-14T03:37:03;9.6;;;4.4;;
80868;SDS011;70295;40.182;44.498;2023-06-14T03:39:03;10.1;;;4.2;;
80868;SDS011;70295;40.182;44.498;2023-06-14T03:41:03;11.1;;;4.2;;
80868;SDS011;70295;40.182;44.498;2023-06-14T03:43:03;9.3;;;4.2;;
80868;SDS011;70295;40.182;44.498;2023-06-14T03:45:03;10.3;;;4.6;;
80868;SDS011;70295;40.182;44.498;2023-06-14T03:47:03;8.9;;;4.2;;
80868;SDS011;70295;40.182;44.498;2023-06-14T03:49:03;10.1;;;4;;
80868;SDS011;70295;40.182;44.498;2023-06-14T03:51:02;8.2;;;3.8;;
80868;SDS011;70295;40.182;44.498;2023-06-14T03:53:03;10.3;;;4.1;;
80868;SDS011;70295;40.182;44.498;2023-06-14T03:55:03;3.5;;;2.1;;
80868;SDS011;70295;40.182;44.498;2023-06-14T03:57:02;7.1;;;3.3;;
80868;SDS011;70295;40.182;44.498;2023-06-14T03:59:03;9.3;;;3.9;;
80868;SDS011;70295;40.182;44.498;2023-06-14T04:01:02;9.2;;;3.9;;
80868;SDS011;70295;40.182;44.498;2023-06-14T04:03:03;6.9;;;4;;
80868;SDS011;70295;40.182;44.498;2023-06-14T04:05:02;8.9;;;4.3;;
80868;SDS011;70295;40.182;44.498;2023-06-14T04:07:03;8.1;;;4.8;;
80868;SDS011;70295;40.182;44.498;2023-06-14T04:09:03;8.8;;;4.6;;
80868;SDS011;70295;40.182;44.498;2023-06-14T04:11:02;12.6;;;4.9;;
80868;SDS011;70295;40.182;44.498;2023-06-14T04:13:03;14.2;;;5.7;;
80868;SDS011;70295;40.182;44.498;2023-06-14T04:15:03;11.1;;;5.5;;
80868;SDS011;70295;40.182;44.498;2023-06-14T04:17:03;12.1;;;6.1;;
80868;SDS011;70295;40.182;44.498;2023-06-14T04:19:02;11.7;;;5.8;;
80868;SDS011;70295;40.182;44.498;2023-06-14T04:21:02;9.1;;;6.4;;
80868;SDS011;70295;40.182;44.498;2023-06-14T04:25:03;11.3;;;5.5;;
80868;SDS011;70295;40.182;44.498;2023-06-14T04:27:02;10.9;;;5.2;;
80868;SDS011;70295;40.182;44.498;2023-06-14T04:29:03;13.7;;;7.3;;
80868;SDS011;70295;40.182;44.498;2023-06-14T04:31:02;14.8;;;6.6;;
80868;SDS011;70295;40.182;44.498;2023-06-14T04:33:03;14.1;;;6.6;;
80868;SDS011;70295;40.182;44.498;2023-06-14T04:35:08;13.8;;;6.2;;
80868;SDS011;70295;40.182;44.498;2023-06-14T04:37:03;12.2;;;5.9;;
80868;SDS011;70295;40.182;44.498;2023-06-14T04:39:03;12.3;;;6.2;;
80868;SDS011;70295;40.182;44.498;2023-06-14T04:41:02;12.6;;;5.9;;
80868;SDS011;70295;40.182;44.498;2023-06-14T04:43:02;11.9;;;5.8;;
80868;SDS011;70295;40.182;44.498;2023-06-14T04:45:03;11.1;;;6.3;;
80868;SDS011;70295;40.182;44.498;2023-06-14T04:47:02;13.4;;;6.1;;
80868;SDS011;70295;40.182;44.498;2023-06-14T04:49:02;12;;;7;;
80868;SDS011;70295;40.182;44.498;2023-06-14T04:51:03;12.3;;;6.6;;
80868;SDS011;70295;40.182;44.498;2023-06-14T04:53:03;13.1;;;6.9;;
80868;SDS011;70295;40.182;44.498;2023-06-14T04:55:03;14.3;;;7.3;;
80868;SDS011;70295;40.182;44.498;2023-06-14T04:57:03;11.8;;;6.7;;
80868;SDS011;70295;40.182;44.498;2023-06-14T04:59:02;11.2;;;6.6;;
80868;SDS011;70295;40.182;44.498;2023-06-14T05:01:02;10.8;;;6.8;;
80868;SDS011;70295;40.182;44.498;2023-06-14T05:03:02;12.3;;;6.2;;
80868;SDS011;70295;40.182;44.498;2023-06-14T05:05:03;13;;;5.9;;
80868;SDS011;70295;40.182;44.498;2023-06-14T05:07:03;11;;;5.6;;
80868;SDS011;70295;40.182;44.498;2023-06-14T05:09:03;9.8;;;5.4;;
80868;SDS011;70295;40.182;44.498;2023-06-14T05:11:03;13.4;;;5.4;;
80868;SDS011;70295;40.182;44.498;2023-06-14T05:13:02;10.1;;;4.7;;
80868;SDS011;70295;40.182;44.498;2023-06-14T05:15:03;11.7;;;5.2;;
80868;SDS011;70295;40.182;44.498;2023-06-14T05:17:03;8.7;;;4;;
80868;SDS011;70295;40.182;44.498;2023-06-14T05:19:02;7.8;;;3.9;;
80868;SDS011;70295;40.182;44.498;2023-06-14T05:21:03;9.9;;;4.2;;
80868;SDS011;70295;40.182;44.498;2023-06-14T05:23:05;8.6;;;3.7;;
80868;SDS011;70295;40.182;44.498;2023-06-14T05:25:03;9.7;;;4;;
80868;SDS011;70295;40.182;44.498;2023-06-14T05:27:03;7.2;;;3.3;;
80868;SDS011;70295;40.182;44.498;2023-06-14T05:29:02;8.5;;;3.2;;
80868;SDS011;70295;40.182;44.498;2023-06-14T05:31:02;8.3;;;3.4;;
80868;SDS011;70295;40.182;44.498;2023-06-14T05:33:02;9.1;;;3.2;;
80868;SDS011;70295;40.182;44.498;2023-06-14T05:35:03;5.7;;;2.9;;
80868;SDS011;70295;40.182;44.498;2023-06-14T05:37:03;6.5;;;2.6;;
80868;SDS011;70295;40.182;44.498;2023-06-14T05:39:02;6.2;;;3;;
80868;SDS011;70295;40.182;44.498;2023-06-14T05:41:02;8.6;;;3.2;;
80868;SDS011;70295;40.182;44.498;2023-06-14T05:43:02;10.6;;;3.8;;
80868;SDS011;70295;40.182;44.498;2023-06-14T05:45:03;5.2;;;2.7;;
80868;SDS011;70295;40.182;44.498;2023-06-14T05:47:03;6.7;;;3.4;;
80868;SDS011;70295;40.182;44.498;2023-06-14T05:49:02;9;;;3.6;;
80868;SDS011;70295;40.182;44.498;2023-06-14T05:51:03;7.3;;;3.8;;
80868;SDS011;70295;40.182;44.498;2023-06-14T05:53:03;7.9;;;3.3;;
80868;SDS011;70295;40.182;44.498;2023-06-14T05:55:03;6.4;;;3.1;;
80868;SDS011;70295;40.182;44.498;2023-06-14T05:57:03;7.6;;;3.6;;
80868;SDS011;70295;40.182;44.498;2023-06-14T05:59:02;5.9;;;2.9;;
80868;SDS011;70295;40.182;44.498;2023-06-14T06:01:02;7.6;;;3.5;;
80868;SDS011;70295;40.182;44.498;2023-06-14T06:03:02;8;;;3.7;;
80868;SDS011;70295;40.182;44.498;2023-06-14T06:05:02;6.9;;;3.8;;
80868;SDS011;70295;40.182;44.498;2023-06-14T06:07:03;8.5;;;4.7;;
80868;SDS011;70295;40.182;44.498;2023-06-14T06:09:02;4.8;;;2.6;;
80868;SDS011;70295;40.182;44.498;2023-06-14T06:11:02;9.8;;;4.1;;
80868;SDS011;70295;40.182;44.498;2023-06-14T06:13:02;5.7;;;3.2;;
80868;SDS011;70295;40.182;44.498;2023-06-14T06:15:03;5.7;;;2.8;;
80868;SDS011;70295;40.182;44.498;2023-06-14T06:17:03;4.9;;;3;;
80868;SDS011;70295;40.182;44.498;2023-06-14T06:19:02;6.1;;;3.5;;
80868;SDS011;70295;40.182;44.498;2023-06-14T06:21:03;7.2;;;3.1;;
80868;SDS011;70295;40.182;44.498;2023-06-14T06:23:02;5.1;;;3;;
80868;SDS011;70295;40.182;44.498;2023-06-14T06:25:03;7.7;;;3.8;;
80868;SDS011;70295;40.182;44.498;2023-06-14T06:27:03;9.5;;;4.6;;
80868;SDS011;70295;40.182;44.498;2023-06-14T06:29:02;8.6;;;4.6;;
80868;SDS011;70295;40.182;44.498;2023-06-14T06:31:02;7.7;;;4.4;;
80868;SDS011;70295;40.182;44.498;2023-06-14T06:33:02;6.8;;;3.8;;
80868;SDS011;70295;40.182;44.498;2023-06-14T06:35:03;6.6;;;4.4;;
80868;SDS011;70295;40.182;44.498;2023-06-14T06:37:02;10;;;4.8;;
80868;SDS011;70295;40.182;44.498;2023-06-14T06:39:02;4.3;;;2.8;;
80868;SDS011;70295;40.182;44.498;2023-06-14T06:41:02;9.1;;;4.5;;
80868;SDS011;70295;40.182;44.498;2023-06-14T06:43:02;9.2;;;4.6;;
80868;SDS011;70295;40.182;44.498;2023-06-14T06:45:03;8.7;;;4;;
80868;SDS011;70295;40.182;44.498;2023-06-14T06:47:03;9.2;;;4.5;;
80868;SDS011;70295;40.182;44.498;2023-06-14T06:49:02;9.7;;;4.3;;
80868;SDS011;70295;40.182;44.498;2023-06-14T06:51:03;9;;;4.2;;
80868;SDS011;70295;40.182;44.498;2023-06-14T06:53:02;5.5;;;3.4;;
80868;SDS011;70295;40.182;44.498;2023-06-14T06:55:03;8;;;4.3;;
80868;SDS011;70295;40.182;44.498;2023-06-14T06:57:03;3.3;;;2.5;;
80868;SDS011;70295;40.182;44.498;2023-06-14T06:59:02;6.2;;;3.2;;
80868;SDS011;70295;40.182;44.498;2023-06-14T07:01:02;6;;;3.3;;
80868;SDS011;70295;40.182;44.498;2023-06-14T07:03:02;5.1;;;3.8;;
80868;SDS011;70295;40.182;44.498;2023-06-14T07:05:02;5.4;;;3.4;;
80868;SDS011;70295;40.182;44.498;2023-06-14T07:07:03;7.5;;;4;;
80868;SDS011;70295;40.182;44.498;2023-06-14T07:09:02;5.1;;;3.2;;
80868;SDS011;70295;40.182;44.498;2023-06-14T07:11:02;7.7;;;4.2;;
80868;SDS011;70295;40.182;44.498;2023-06-14T07:13:02;6.2;;;3.3;;
80868;SDS011;70295;40.182;44.498;2023-06-14T07:15:03;7.4;;;4.1;;
80868;SDS011;70295;40.182;44.498;2023-06-14T07:17:03;6.4;;;3.6;;
80868;SDS011;70295;40.182;44.498;2023-06-14T07:19:02;5.1;;;3.5;;
80868;SDS011;70295;40.182;44.498;2023-06-14T07:21:02;7.5;;;4.4;;
80868;SDS011;70295;40.182;44.498;2023-06-14T07:23:03;6.8;;;4.4;;
80868;SDS011;70295;40.182;44.498;2023-06-14T07:25:02;6.3;;;4;;
80868;SDS011;70295;40.182;44.498;2023-06-14T07:27:02;6;;;4.1;;
80868;SDS011;70295;40.182;44.498;2023-06-14T07:29:03;7.1;;;3.8;;
80868;SDS011;70295;40.182;44.498;2023-06-14T07:31:02;6.4;;;4;;
80868;SDS011;70295;40.182;44.498;2023-06-14T07:33:02;7.6;;;4.4;;
80868;SDS011;70295;40.182;44.498;2023-06-14T07:35:02;7.3;;;4;;
80868;SDS011;70295;40.182;44.498;2023-06-14T07:37:02;6.3;;;3.7;;
80868;SDS011;70295;40.182;44.498;2023-06-14T07:39:02;8.6;;;4.1;;
80868;SDS011;70295;40.182;44.498;2023-06-14T07:41:02;9.6;;;4.8;;
80868;SDS011;70295;40.182;44.498;2023-06-14T07:43:02;9.5;;;4.4;;
80868;SDS011;70295;40.182;44.498;2023-06-14T07:45:03;7.9;;;4.4;;
80868;SDS011;70295;40.182;44.498;2023-06-14T07:47:02;8.6;;;4.9;;
80868;SDS011;70295;40.182;44.498;2023-06-14T07:49:02;7.8;;;5.2;;
80868;SDS011;70295;40.182;44.498;2023-06-14T07:51:02;6.8;;;3.6;;
80868;SDS011;70295;40.182;44.498;2023-06-14T07:53:02;7.6;;;4.3;;
80868;SDS011;70295;40.182;44.498;2023-06-14T07:55:03;8.2;;;4.7;;
80868;SDS011;70295;40.182;44.498;2023-06-14T07:57:02;7.4;;;4.4;;
80868;SDS011;70295;40.182;44.498;2023-06-14T07:59:02;7.8;;;4;;
80868;SDS011;70295;40.182;44.498;2023-06-14T08:01:02;6.1;;;3.9;;
80868;SDS011;70295;40.182;44.498;2023-06-14T08:03:02;6.5;;;4.1;;
80868;SDS011;70295;40.182;44.498;2023-06-14T08:05:03;6.7;;;4;;
80868;SDS011;70295;40.182;44.498;2023-06-14T08:07:03;6.6;;;3.8;;
80868;SDS011;70295;40.182;44.498;2023-06-14T08:09:02;7.1;;;3.6;;
80868;SDS011;70295;40.182;44.498;2023-06-14T08:11:02;5.8;;;3.7;;
80868;SDS011;70295;40.182;44.498;2023-06-14T08:13:02;5.5;;;4;;
80868;SDS011;70295;40.182;44.498;2023-06-14T08:15:03;3.7;;;2.7;;
80868;SDS011;70295;40.182;44.498;2023-06-14T08:17:02;5.8;;;3.4;;
80868;SDS011;70295;40.182;44.498;2023-06-14T08:19:02;6.4;;;3.4;;
80868;SDS011;70295;40.182;44.498;2023-06-14T08:21:02;11.1;;;4.2;;
80868;SDS011;70295;40.182;44.498;2023-06-14T08:23:02;6.5;;;3.6;;
80868;SDS011;70295;40.182;44.498;2023-06-14T08:25:03;6.1;;;3.4;;
80868;SDS011;70295;40.182;44.498;2023-06-14T08:27:03;8;;;3.9;;
80868;SDS011;70295;40.182;44.498;2023-06-14T08:29:02;10.4;;;4;;
80868;SDS011;70295;40.182;44.498;2023-06-14T08:31:02;4.9;;;3.1;;
80868;SDS011;70295;40.182;44.498;2023-06-14T08:33:02;5.4;;;3.5;;
80868;SDS011;70295;40.182;44.498;2023-06-14T08:35:02;6.6;;;3.2;;
80868;SDS011;70295;40.182;44.498;2023-06-14T08:37:02;5.9;;;3;;
80868;SDS011;70295;40.182;44.498;2023-06-14T08:39:02;6.3;;;3.2;;
80868;SDS011;70295;40.182;44.498;2023-06-14T08:41:03;5.4;;;2.9;;
80868;SDS011;70295;40.182;44.498;2023-06-14T08:43:03;6;;;3.1;;
80868;SDS011;70295;40.182;44.498;2023-06-14T08:45:02;3.9;;;3;;
80868;SDS011;70295;40.182;44.498;2023-06-14T08:47:03;6.2;;;3;;
80868;SDS011;70295;40.182;44.498;2023-06-14T08:49:02;6.1;;;3.8;;
80868;SDS011;70295;40.182;44.498;2023-06-14T08:51:05;5.2;;;3;;
80868;SDS011;70295;40.182;44.498;2023-06-14T08:53:04;4.5;;;2.6;;
80868;SDS011;70295;40.182;44.498;2023-06-14T08:55:02;4.1;;;2.6;;
80868;SDS011;70295;40.182;44.498;2023-06-14T08:57:03;6.7;;;2.4;;
80868;SDS011;70295;40.182;44.498;2023-06-14T08:59:02;5.8;;;2.9;;
80868;SDS011;70295;40.182;44.498;2023-06-14T09:01:02;5.7;;;2.5;;
80868;SDS011;70295;40.182;44.498;2023-06-14T09:03:03;4.2;;;3;;
80868;SDS011;70295;40.182;44.498;2023-06-14T09:05:02;6.6;;;2.4;;
80868;SDS011;70295;40.182;44.498;2023-06-14T09:07:02;4.1;;;2.1;;
80868;SDS011;70295;40.182;44.498;2023-06-14T09:09:03;4.2;;;2;;
80868;SDS011;70295;40.182;44.498;2023-06-14T09:11:02;5.7;;;2.6;;
80868;SDS011;70295;40.182;44.498;2023-06-14T09:13:03;4.5;;;2.3;;
80868;SDS011;70295;40.182;44.498;2023-06-14T09:15:05;6.2;;;2.7;;
80868;SDS011;70295;40.182;44.498;2023-06-14T09:17:05;6.8;;;2.4;;
80868;SDS011;70295;40.182;44.498;2023-06-14T09:19:02;4.3;;;2.6;;
80868;SDS011;70295;40.182;44.498;2023-06-14T09:21:03;7.8;;;3.2;;
80868;SDS011;70295;40.182;44.498;2023-06-14T09:23:04;5.9;;;3.1;;
80868;SDS011;70295;40.182;44.498;2023-06-14T09:25:02;8.3;;;4;;
80868;SDS011;70295;40.182;44.498;2023-06-14T09:27:02;7.7;;;3.5;;
80868;SDS011;70295;40.182;44.498;2023-06-14T09:29:04;7.4;;;3.2;;
80868;SDS011;70295;40.182;44.498;2023-06-14T09:31:02;7.5;;;3.5;;
80868;SDS011;70295;40.182;44.498;2023-06-14T09:33:02;5.9;;;3.6;;
80868;SDS011;70295;40.182;44.498;2023-06-14T09:35:02;8.4;;;3.3;;
80868;SDS011;70295;40.182;44.498;2023-06-14T09:37:02;7.4;;;3.3;;
80868;SDS011;70295;40.182;44.498;2023-06-14T09:39:03;3.9;;;2.5;;
80868;SDS011;70295;40.182;44.498;2023-06-14T09:41:02;5.4;;;2.6;;
80868;SDS011;70295;40.182;44.498;2023-06-14T09:43:04;5.2;;;2.4;;
80868;SDS011;70295;40.182;44.498;2023-06-14T09:45:03;4.5;;;2.5;;
80868;SDS011;70295;40.182;44.498;2023-06-14T09:47:04;5.8;;;2.9;;
80868;SDS011;70295;40.182;44.498;2023-06-14T09:49:02;5.2;;;2.7;;
80868;SDS011;70295;40.182;44.498;2023-06-14T09:51:05;6.2;;;3.3;;
80868;SDS011;70295;40.182;44.498;2023-06-14T09:53:03;4.7;;;2.4;;
80868;SDS011;70295;40.182;44.498;2023-06-14T09:55:03;5.2;;;2.4;;
80868;SDS011;70295;40.182;44.498;2023-06-14T09:57:02;6.8;;;2.6;;
80868;SDS011;70295;40.182;44.498;2023-06-14T09:59:05;3.1;;;2.3;;
80868;SDS011;70295;40.182;44.498;2023-06-14T10:01:02;4.7;;;2;;
80868;SDS011;70295;40.182;44.498;2023-06-14T10:05:06;4.1;;;2.1;;
80868;SDS011;70295;40.182;44.498;2023-06-14T10:07:04;4.6;;;2.3;;
80868;SDS011;70295;40.182;44.498;2023-06-14T10:11:01;3.9;;;1.7;;
80868;SDS011;70295;40.182;44.498;2023-06-14T10:13:02;4.5;;;2;;
80868;SDS011;70295;40.182;44.498;2023-06-14T10:15:02;4.8;;;2.2;;
80868;SDS011;70295;40.182;44.498;2023-06-14T10:17:09;4.4;;;2.5;;
80868;SDS011;70295;40.182;44.498;2023-06-14T10:21:08;4.5;;;2.3;;
80868;SDS011;70295;40.182;44.498;2023-06-14T10:23:07;4;;;2.1;;
80868;SDS011;70295;40.182;44.498;2023-06-14T10:25:02;5.2;;;2.5;;
80868;SDS011;70295;40.182;44.498;2023-06-14T10:28:31;5.1;;;2.5;;
80868;SDS011;70295;40.182;44.498;2023-06-14T10:30:34;4.7;;;1.9;;
80868;SDS011;70295;40.182;44.498;2023-06-14T10:32:31;5.5;;;2.1;;
80868;SDS011;70295;40.182;44.498;2023-06-14T10:35:42;4.2;;;2;;
80868;SDS011;70295;40.182;44.498;2023-06-14T10:37:42;5.3;;;2.1;;
80868;SDS011;70295;40.182;44.498;2023-06-14T10:39:46;4.3;;;2.7;;
80868;SDS011;70295;40.182;44.498;2023-06-14T10:43:42;5.3;;;3;;
80868;SDS011;70295;40.182;44.498;2023-06-14T10:46:10;7.4;;;2.7;;
80868;SDS011;70295;40.182;44.498;2023-06-14T10:47:42;7.6;;;3.3;;
80868;SDS011;70295;40.182;44.498;2023-06-14T10:49:48;7.6;;;3.4;;
80868;SDS011;70295;40.182;44.498;2023-06-14T10:51:49;8.1;;;3.1;;
80868;SDS011;70295;40.182;44.498;2023-06-14T10:53:49;8.6;;;3.4;;
80868;SDS011;70295;40.182;44.498;2023-06-14T10:55:45;6.6;;;2.8;;
80868;SDS011;70295;40.182;44.498;2023-06-14T10:59:42;8.3;;;2.8;;
80868;SDS011;70295;40.182;44.498;2023-06-14T11:05:49;8.4;;;3.8;;
80868;SDS011;70295;40.182;44.498;2023-06-14T11:07:55;7.6;;;3.6;;
80868;SDS011;70295;40.182;44.498;2023-06-14T11:11:52;11.2;;;4.3;;
80868;SDS011;70295;40.182;44.498;2023-06-14T11:13:53;6.5;;;3.3;;
80868;SDS011;70295;40.182;44.498;2023-06-14T11:15:53;7.7;;;3.8;;
80868;SDS011;70295;40.182;44.498;2023-06-14T11:17:50;15.3;;;4.7;;
80868;SDS011;70295;40.182;44.498;2023-06-14T11:19:49;11.9;;;4.4;;
80868;SDS011;70295;40.182;44.498;2023-06-14T11:21:52;8.6;;;4.3;;
80868;SDS011;70295;40.182;44.498;2023-06-14T11:23:50;11.2;;;4.1;;
80868;SDS011;70295;40.182;44.498;2023-06-14T11:25:52;9.2;;;4.3;;
80868;SDS011;70295;40.182;44.498;2023-06-14T11:27:51;10.6;;;4.2;;
80868;SDS011;70295;40.182;44.498;2023-06-14T11:29:53;8.9;;;3.7;;
80868;SDS011;70295;40.182;44.498;2023-06-14T11:31:53;7.9;;;4;;
80868;SDS011;70295;40.182;44.498;2023-06-14T11:33:50;11.8;;;5.1;;
80868;SDS011;70295;40.182;44.498;2023-06-14T11:35:49;11.2;;;4.5;;
80868;SDS011;70295;40.182;44.498;2023-06-14T11:39:55;7.7;;;3.4;;
80868;SDS011;70295;40.182;44.498;2023-06-14T11:41:51;8.1;;;3.4;;
80868;SDS011;70295;40.182;44.498;2023-06-14T11:43:52;9.6;;;3.9;;
80868;SDS011;70295;40.182;44.498;2023-06-14T11:45:50;10.1;;;3.6;;
80868;SDS011;70295;40.182;44.498;2023-06-14T11:47:50;6.5;;;3.4;;
80868;SDS011;70295;40.182;44.498;2023-06-14T11:49:49;5.9;;;2.9;;
80868;SDS011;70295;40.182;44.498;2023-06-14T11:51:49;4.8;;;2.9;;
80868;SDS011;70295;40.182;44.498;2023-06-14T11:53:50;6.8;;;3.1;;
80868;SDS011;70295;40.182;44.498;2023-06-14T11:55:50;15.2;;;3.8;;
80868;SDS011;70295;40.182;44.498;2023-06-14T11:57:49;17.8;;;4.6;;
80868;SDS011;70295;40.182;44.498;2023-06-14T11:59:50;28.5;;;6.4;;
80868;SDS011;70295;40.182;44.498;2023-06-14T12:01:53;9.9;;;4.1;;
80868;SDS011;70295;40.182;44.498;2023-06-14T12:03:53;9.3;;;3.7;;
80868;SDS011;70295;40.182;44.498;2023-06-14T12:05:49;8.4;;;4.3;;
80868;SDS011;70295;40.182;44.498;2023-06-14T12:07:50;6.6;;;3.4;;
80868;SDS011;70295;40.182;44.498;2023-06-14T12:11:49;7.7;;;3.7;;
80868;SDS011;70295;40.182;44.498;2023-06-14T12:13:50;9.6;;;3.5;;
80868;SDS011;70295;40.182;44.498;2023-06-14T12:17:49;5.5;;;3.6;;
80868;SDS011;70295;40.182;44.498;2023-06-14T12:19:53;7.2;;;3.7;;
80868;SDS011;70295;40.182;44.498;2023-06-14T12:21:50;6;;;3.5;;
80868;SDS011;70295;40.182;44.498;2023-06-14T12:23:53;6.6;;;3.5;;
80868;SDS011;70295;40.182;44.498;2023-06-14T12:25:49;6.9;;;3.4;;
80868;SDS011;70295;40.182;44.498;2023-06-14T12:27:49;6.3;;;3.1;;
80868;SDS011;70295;40.182;44.498;2023-06-14T12:29:58;9.1;;;5;;
80868;SDS011;70295;40.182;44.498;2023-06-14T12:31:50;6.9;;;3.3;;
80868;SDS011;70295;40.182;44.498;2023-06-14T12:33:50;8.3;;;4;;
80868;SDS011;70295;40.182;44.498;2023-06-14T12:35:49;9.6;;;3.5;;
80868;SDS011;70295;40.182;44.498;2023-06-14T12:37:49;10.6;;;4.3;;
80868;SDS011;70295;40.182;44.498;2023-06-14T12:39:49;7.6;;;3.5;;
80868;SDS011;70295;40.182;44.498;2023-06-14T12:41:49;9.8;;;3.7;;
80868;SDS011;70295;40.182;44.498;2023-06-14T12:43:49;6.8;;;3.5;;
80868;SDS011;70295;40.182;44.498;2023-06-14T12:45:49;6.2;;;3.2;;
80868;SDS011;70295;40.182;44.498;2023-06-14T12:47:49;8.4;;;3.9;;